sensor_id;sensor_type;location;lat;lon;timestamp;P1;durP1;ratioP1;P2;durP2;ratioP2
8058;SDS011;4072;42.668;23.396;2022-12-15T00:01:58;15.53;;;12.07;;
8058;SDS011;4072;42.668;23.396;2022-12-15T00:04:44;18.03;;;12.87;;
8058;SDS011;4072;42.668;23.396;2022-12-15T00:07:29;13.57;;;11.17;;
8058;SDS011;4072;42.668;23.396;2022-12-15T00:10:15;18.17;;;11.70;;
8058;SDS011;4072;42.668;23.396;2022-12-15T00:13:00;16.07;;;12.53;;
8058;SDS011;4072;42.668;23.396;2022-12-15T00:15:45;18.33;;;12.70;;
8058;SDS011;4072;42.668;23.396;2022-12-15T00:18:32;17.00;;;12.63;;
8058;SDS011;4072;42.668;23.396;2022-12-15T00:21:18;19.07;;;13.00;;
8058;SDS011;4072;42.668;23.396;2022-12-15T00:24:03;17.53;;;13.77;;
8058;SDS011;4072;42.668;23.396;2022-12-15T00:26:48;19.43;;;14.63;;
8058;SDS011;4072;42.668;23.396;2022-12-15T00:29:33;16.23;;;12.90;;
8058;SDS011;4072;42.668;23.396;2022-12-15T00:32:18;20.03;;;13.23;;
8058;SDS011;4072;42.668;23.396;2022-12-15T00:35:05;20.17;;;14.83;;
8058;SDS011;4072;42.668;23.396;2022-12-15T00:37:50;20.33;;;14.47;;
8058;SDS011;4072;42.668;23.396;2022-12-15T00:40:35;17.53;;;14.47;;
8058;SDS011;4072;42.668;23.396;2022-12-15T00:43:03;20.50;;;15.73;;
8058;SDS011;4072;42.668;23.396;2022-12-15T00:45:30;26.07;;;17.60;;
8058;SDS011;4072;42.668;23.396;2022-12-15T00:48:12;20.63;;;14.50;;
8058;SDS011;4072;42.668;23.396;2022-12-15T00:50:42;19.50;;;14.00;;
8058;SDS011;4072;42.668;23.396;2022-12-15T00:53:18;22.60;;;16.67;;
8058;SDS011;4072;42.668;23.396;2022-12-15T00:56:03;23.57;;;17.97;;
8058;SDS011;4072;42.668;23.396;2022-12-15T00:58:48;26.90;;;19.80;;
8058;SDS011;4072;42.668;23.396;2022-12-15T01:01:33;29.73;;;22.00;;
8058;SDS011;4072;42.668;23.396;2022-12-15T01:04:19;23.63;;;17.30;;
8058;SDS011;4072;42.668;23.396;2022-12-15T01:07:06;23.47;;;17.13;;
8058;SDS011;4072;42.668;23.396;2022-12-15T01:09:51;19.63;;;16.53;;
8058;SDS011;4072;42.668;23.396;2022-12-15T01:12:36;22.00;;;16.17;;
8058;SDS011;4072;42.668;23.396;2022-12-15T01:15:21;23.37;;;16.60;;
8058;SDS011;4072;42.668;23.396;2022-12-15T01:18:06;20.40;;;14.60;;
8058;SDS011;4072;42.668;23.396;2022-12-15T01:20:55;21.23;;;15.87;;
8058;SDS011;4072;42.668;23.396;2022-12-15T01:23:24;20.60;;;14.63;;
8058;SDS011;4072;42.668;23.396;2022-12-15T01:25:52;22.90;;;15.60;;
8058;SDS011;4072;42.668;23.396;2022-12-15T01:28:20;20.73;;;15.90;;
8058;SDS011;4072;42.668;23.396;2022-12-15T01:30:48;21.97;;;17.00;;
8058;SDS011;4072;42.668;23.396;2022-12-15T01:33:16;20.73;;;16.17;;
8058;SDS011;4072;42.668;23.396;2022-12-15T01:35:44;25.50;;;18.00;;
8058;SDS011;4072;42.668;23.396;2022-12-15T01:38:12;24.50;;;16.83;;
8058;SDS011;4072;42.668;23.396;2022-12-15T01:40:49;23.80;;;16.77;;
8058;SDS011;4072;42.668;23.396;2022-12-15T01:43:16;21.23;;;15.03;;
8058;SDS011;4072;42.668;23.396;2022-12-15T01:45:45;23.50;;;17.00;;
8058;SDS011;4072;42.668;23.396;2022-12-15T01:48:14;24.87;;;17.60;;
8058;SDS011;4072;42.668;23.396;2022-12-15T01:50:44;28.20;;;19.03;;
8058;SDS011;4072;42.668;23.396;2022-12-15T01:53:13;25.00;;;17.20;;
8058;SDS011;4072;42.668;23.396;2022-12-15T01:55:43;25.37;;;18.77;;
8058;SDS011;4072;42.668;23.396;2022-12-15T01:58:15;35.00;;;21.83;;
8058;SDS011;4072;42.668;23.396;2022-12-15T02:00:43;28.50;;;18.80;;
8058;SDS011;4072;42.668;23.396;2022-12-15T02:03:11;30.27;;;20.50;;
8058;SDS011;4072;42.668;23.396;2022-12-15T02:05:39;25.30;;;17.27;;
8058;SDS011;4072;42.668;23.396;2022-12-15T02:08:07;27.90;;;19.57;;
8058;SDS011;4072;42.668;23.396;2022-12-15T02:10:38;26.97;;;18.67;;
8058;SDS011;4072;42.668;23.396;2022-12-15T02:13:10;30.40;;;21.03;;
8058;SDS011;4072;42.668;23.396;2022-12-15T02:15:42;41.07;;;22.77;;
8058;SDS011;4072;42.668;23.396;2022-12-15T02:18:13;18.17;;;14.43;;
8058;SDS011;4072;42.668;23.396;2022-12-15T02:20:45;22.27;;;16.77;;
8058;SDS011;4072;42.668;23.396;2022-12-15T02:23:42;21.23;;;15.17;;
8058;SDS011;4072;42.668;23.396;2022-12-15T02:26:27;16.10;;;11.73;;
8058;SDS011;4072;42.668;23.396;2022-12-15T02:29:00;12.23;;;9.47;;
8058;SDS011;4072;42.668;23.396;2022-12-15T02:31:37;13.17;;;10.13;;
8058;SDS011;4072;42.668;23.396;2022-12-15T02:34:18;7.73;;;4.77;;
8058;SDS011;4072;42.668;23.396;2022-12-15T02:36:49;7.40;;;6.37;;
8058;SDS011;4072;42.668;23.396;2022-12-15T02:39:18;12.13;;;8.17;;
8058;SDS011;4072;42.668;23.396;2022-12-15T02:41:46;6.80;;;5.53;;
8058;SDS011;4072;42.668;23.396;2022-12-15T02:44:14;8.93;;;7.50;;
8058;SDS011;4072;42.668;23.396;2022-12-15T02:46:48;7.73;;;6.90;;
8058;SDS011;4072;42.668;23.396;2022-12-15T02:49:21;8.53;;;6.37;;
8058;SDS011;4072;42.668;23.396;2022-12-15T02:51:55;9.20;;;6.90;;
8058;SDS011;4072;42.668;23.396;2022-12-15T02:54:30;9.70;;;7.77;;
8058;SDS011;4072;42.668;23.396;2022-12-15T02:57:02;8.87;;;7.00;;
8058;SDS011;4072;42.668;23.396;2022-12-15T02:59:34;8.83;;;6.57;;
8058;SDS011;4072;42.668;23.396;2022-12-15T03:02:06;7.37;;;6.50;;
8058;SDS011;4072;42.668;23.396;2022-12-15T03:04:35;9.33;;;7.63;;
8058;SDS011;4072;42.668;23.396;2022-12-15T03:07:04;8.10;;;7.30;;
8058;SDS011;4072;42.668;23.396;2022-12-15T03:09:32;9.27;;;6.50;;
8058;SDS011;4072;42.668;23.396;2022-12-15T03:12:00;8.37;;;7.23;;
8058;SDS011;4072;42.668;23.396;2022-12-15T03:14:28;9.90;;;8.20;;
8058;SDS011;4072;42.668;23.396;2022-12-15T03:16:56;9.00;;;7.17;;
8058;SDS011;4072;42.668;23.396;2022-12-15T03:19:25;11.20;;;7.57;;
8058;SDS011;4072;42.668;23.396;2022-12-15T03:21:53;8.07;;;6.67;;
8058;SDS011;4072;42.668;23.396;2022-12-15T03:24:21;8.47;;;6.80;;
8058;SDS011;4072;42.668;23.396;2022-12-15T03:26:48;8.83;;;7.50;;
8058;SDS011;4072;42.668;23.396;2022-12-15T03:29:17;8.80;;;6.70;;
8058;SDS011;4072;42.668;23.396;2022-12-15T03:31:44;8.93;;;8.00;;
8058;SDS011;4072;42.668;23.396;2022-12-15T03:34:15;12.67;;;8.77;;
8058;SDS011;4072;42.668;23.396;2022-12-15T03:36:44;12.87;;;9.13;;
8058;SDS011;4072;42.668;23.396;2022-12-15T03:39:12;11.33;;;9.93;;
8058;SDS011;4072;42.668;23.396;2022-12-15T03:41:40;13.20;;;10.90;;
8058;SDS011;4072;42.668;23.396;2022-12-15T03:44:08;11.73;;;10.00;;
8058;SDS011;4072;42.668;23.396;2022-12-15T03:46:35;13.73;;;10.17;;
8058;SDS011;4072;42.668;23.396;2022-12-15T03:49:03;12.00;;;9.53;;
8058;SDS011;4072;42.668;23.396;2022-12-15T03:51:31;10.47;;;8.60;;
8058;SDS011;4072;42.668;23.396;2022-12-15T03:54:00;10.13;;;7.87;;
8058;SDS011;4072;42.668;23.396;2022-12-15T03:56:28;8.13;;;7.33;;
8058;SDS011;4072;42.668;23.396;2022-12-15T03:58:55;9.67;;;7.77;;
8058;SDS011;4072;42.668;23.396;2022-12-15T04:01:25;10.00;;;7.23;;
8058;SDS011;4072;42.668;23.396;2022-12-15T04:03:53;9.00;;;6.77;;
8058;SDS011;4072;42.668;23.396;2022-12-15T04:06:26;11.80;;;8.30;;
8058;SDS011;4072;42.668;23.396;2022-12-15T04:08:54;10.00;;;7.10;;
8058;SDS011;4072;42.668;23.396;2022-12-15T04:11:23;10.03;;;8.57;;
8058;SDS011;4072;42.668;23.396;2022-12-15T04:13:51;13.97;;;10.93;;
8058;SDS011;4072;42.668;23.396;2022-12-15T04:16:18;10.27;;;9.17;;
8058;SDS011;4072;42.668;23.396;2022-12-15T04:18:46;13.23;;;10.83;;
8058;SDS011;4072;42.668;23.396;2022-12-15T04:21:35;14.03;;;11.53;;
8058;SDS011;4072;42.668;23.396;2022-12-15T04:24:02;14.10;;;11.67;;
8058;SDS011;4072;42.668;23.396;2022-12-15T04:26:49;12.13;;;9.27;;
8058;SDS011;4072;42.668;23.396;2022-12-15T04:29:34;10.73;;;8.43;;
8058;SDS011;4072;42.668;23.396;2022-12-15T04:32:19;9.33;;;7.73;;
8058;SDS011;4072;42.668;23.396;2022-12-15T04:35:04;14.17;;;7.97;;
8058;SDS011;4072;42.668;23.396;2022-12-15T04:37:49;12.77;;;9.00;;
8058;SDS011;4072;42.668;23.396;2022-12-15T04:40:34;10.13;;;8.27;;
8058;SDS011;4072;42.668;23.396;2022-12-15T04:43:21;10.00;;;8.53;;
8058;SDS011;4072;42.668;23.396;2022-12-15T04:46:07;11.87;;;8.37;;
8058;SDS011;4072;42.668;23.396;2022-12-15T04:48:52;10.20;;;8.67;;
8058;SDS011;4072;42.668;23.396;2022-12-15T04:51:37;13.07;;;9.80;;
8058;SDS011;4072;42.668;23.396;2022-12-15T04:54:22;13.10;;;10.70;;
8058;SDS011;4072;42.668;23.396;2022-12-15T04:57:07;12.87;;;10.20;;
8058;SDS011;4072;42.668;23.396;2022-12-15T04:59:53;13.77;;;10.97;;
8058;SDS011;4072;42.668;23.396;2022-12-15T05:02:38;14.17;;;11.40;;
8058;SDS011;4072;42.668;23.396;2022-12-15T05:05:23;13.73;;;11.20;;
8058;SDS011;4072;42.668;23.396;2022-12-15T05:08:08;12.80;;;10.70;;
8058;SDS011;4072;42.668;23.396;2022-12-15T05:10:54;15.07;;;10.63;;
8058;SDS011;4072;42.668;23.396;2022-12-15T05:13:41;13.17;;;9.53;;
8058;SDS011;4072;42.668;23.396;2022-12-15T05:16:28;11.00;;;8.37;;
8058;SDS011;4072;42.668;23.396;2022-12-15T05:19:13;15.77;;;10.30;;
8058;SDS011;4072;42.668;23.396;2022-12-15T05:21:58;15.20;;;11.73;;
8058;SDS011;4072;42.668;23.396;2022-12-15T05:24:43;15.60;;;12.33;;
8058;SDS011;4072;42.668;23.396;2022-12-15T05:27:28;13.10;;;10.77;;
8058;SDS011;4072;42.668;23.396;2022-12-15T05:30:13;14.77;;;11.50;;
8058;SDS011;4072;42.668;23.396;2022-12-15T05:33:03;15.90;;;10.03;;
8058;SDS011;4072;42.668;23.396;2022-12-15T05:35:30;18.00;;;11.83;;
8058;SDS011;4072;42.668;23.396;2022-12-15T05:37:58;14.27;;;10.90;;
8058;SDS011;4072;42.668;23.396;2022-12-15T05:40:26;17.37;;;11.83;;
8058;SDS011;4072;42.668;23.396;2022-12-15T05:42:56;18.47;;;12.23;;
8058;SDS011;4072;42.668;23.396;2022-12-15T05:45:24;18.20;;;12.67;;
8058;SDS011;4072;42.668;23.396;2022-12-15T05:47:52;17.80;;;13.37;;
8058;SDS011;4072;42.668;23.396;2022-12-15T05:50:21;16.70;;;12.30;;
8058;SDS011;4072;42.668;23.396;2022-12-15T05:52:49;15.07;;;11.27;;
8058;SDS011;4072;42.668;23.396;2022-12-15T05:55:17;12.80;;;10.00;;
8058;SDS011;4072;42.668;23.396;2022-12-15T05:57:49;16.93;;;10.87;;
8058;SDS011;4072;42.668;23.396;2022-12-15T06:00:17;19.57;;;12.50;;
8058;SDS011;4072;42.668;23.396;2022-12-15T06:02:45;13.33;;;10.83;;
8058;SDS011;4072;42.668;23.396;2022-12-15T06:05:15;14.23;;;11.20;;
8058;SDS011;4072;42.668;23.396;2022-12-15T06:07:44;14.90;;;11.50;;
8058;SDS011;4072;42.668;23.396;2022-12-15T06:10:12;13.93;;;12.40;;
8058;SDS011;4072;42.668;23.396;2022-12-15T06:12:39;16.43;;;11.57;;
8058;SDS011;4072;42.668;23.396;2022-12-15T06:15:07;16.17;;;11.90;;
8058;SDS011;4072;42.668;23.396;2022-12-15T06:17:35;14.73;;;11.13;;
8058;SDS011;4072;42.668;23.396;2022-12-15T06:20:03;16.23;;;12.20;;
8058;SDS011;4072;42.668;23.396;2022-12-15T06:22:31;17.37;;;12.50;;
8058;SDS011;4072;42.668;23.396;2022-12-15T06:25:00;15.57;;;12.47;;
8058;SDS011;4072;42.668;23.396;2022-12-15T06:27:28;15.87;;;13.80;;
8058;SDS011;4072;42.668;23.396;2022-12-15T06:30:03;20.63;;;14.20;;
8058;SDS011;4072;42.668;23.396;2022-12-15T06:32:33;21.87;;;16.30;;
8058;SDS011;4072;42.668;23.396;2022-12-15T06:35:00;21.77;;;17.23;;
8058;SDS011;4072;42.668;23.396;2022-12-15T06:37:28;24.93;;;15.60;;
8058;SDS011;4072;42.668;23.396;2022-12-15T06:39:56;23.90;;;15.97;;
8058;SDS011;4072;42.668;23.396;2022-12-15T06:42:25;24.27;;;16.83;;
8058;SDS011;4072;42.668;23.396;2022-12-15T06:44:53;26.23;;;18.50;;
8058;SDS011;4072;42.668;23.396;2022-12-15T06:47:20;21.97;;;16.80;;
8058;SDS011;4072;42.668;23.396;2022-12-15T06:49:48;20.40;;;17.17;;
8058;SDS011;4072;42.668;23.396;2022-12-15T06:52:16;22.90;;;17.00;;
8058;SDS011;4072;42.668;23.396;2022-12-15T06:54:44;23.37;;;17.40;;
8058;SDS011;4072;42.668;23.396;2022-12-15T06:57:11;21.77;;;16.07;;
8058;SDS011;4072;42.668;23.396;2022-12-15T06:59:40;25.20;;;17.50;;
8058;SDS011;4072;42.668;23.396;2022-12-15T07:02:09;25.50;;;15.77;;
8058;SDS011;4072;42.668;23.396;2022-12-15T07:04:42;18.17;;;14.17;;
8058;SDS011;4072;42.668;23.396;2022-12-15T07:07:09;21.93;;;16.17;;
8058;SDS011;4072;42.668;23.396;2022-12-15T07:09:37;18.40;;;15.10;;
8058;SDS011;4072;42.668;23.396;2022-12-15T07:12:05;17.80;;;14.57;;
8058;SDS011;4072;42.668;23.396;2022-12-15T07:14:33;17.57;;;14.57;;
8058;SDS011;4072;42.668;23.396;2022-12-15T07:17:02;18.73;;;14.60;;
8058;SDS011;4072;42.668;23.396;2022-12-15T07:19:30;19.07;;;14.80;;
8058;SDS011;4072;42.668;23.396;2022-12-15T07:21:58;21.23;;;16.70;;
8058;SDS011;4072;42.668;23.396;2022-12-15T07:24:26;20.17;;;16.20;;
8058;SDS011;4072;42.668;23.396;2022-12-15T07:26:54;17.30;;;13.43;;
8058;SDS011;4072;42.668;23.396;2022-12-15T07:29:22;18.70;;;13.93;;
8058;SDS011;4072;42.668;23.396;2022-12-15T07:31:50;16.60;;;13.60;;
8058;SDS011;4072;42.668;23.396;2022-12-15T07:34:19;16.03;;;13.03;;
8058;SDS011;4072;42.668;23.396;2022-12-15T07:36:46;18.53;;;14.57;;
8058;SDS011;4072;42.668;23.396;2022-12-15T07:39:17;15.33;;;13.27;;
8058;SDS011;4072;42.668;23.396;2022-12-15T07:41:45;17.00;;;13.03;;
8058;SDS011;4072;42.668;23.396;2022-12-15T07:44:13;20.03;;;15.37;;
8058;SDS011;4072;42.668;23.396;2022-12-15T07:46:41;18.20;;;13.73;;
8058;SDS011;4072;42.668;23.396;2022-12-15T07:49:12;17.27;;;13.53;;
8058;SDS011;4072;42.668;23.396;2022-12-15T07:51:41;17.37;;;13.63;;
8058;SDS011;4072;42.668;23.396;2022-12-15T07:54:09;20.20;;;12.73;;
8058;SDS011;4072;42.668;23.396;2022-12-15T07:56:37;18.80;;;13.40;;
8058;SDS011;4072;42.668;23.396;2022-12-15T07:59:05;17.57;;;13.47;;
8058;SDS011;4072;42.668;23.396;2022-12-15T08:01:33;15.73;;;11.70;;
8058;SDS011;4072;42.668;23.396;2022-12-15T08:04:01;14.93;;;12.50;;
8058;SDS011;4072;42.668;23.396;2022-12-15T08:06:29;14.57;;;11.53;;
8058;SDS011;4072;42.668;23.396;2022-12-15T08:08:58;18.57;;;13.40;;
8058;SDS011;4072;42.668;23.396;2022-12-15T08:11:26;16.07;;;12.70;;
8058;SDS011;4072;42.668;23.396;2022-12-15T08:13:59;16.73;;;12.20;;
8058;SDS011;4072;42.668;23.396;2022-12-15T08:16:29;15.23;;;11.87;;
8058;SDS011;4072;42.668;23.396;2022-12-15T08:18:57;17.77;;;14.60;;
8058;SDS011;4072;42.668;23.396;2022-12-15T08:21:25;13.07;;;11.27;;
8058;SDS011;4072;42.668;23.396;2022-12-15T08:23:52;16.97;;;12.37;;
8058;SDS011;4072;42.668;23.396;2022-12-15T08:26:22;16.43;;;12.63;;
8058;SDS011;4072;42.668;23.396;2022-12-15T08:28:56;17.57;;;14.30;;
8058;SDS011;4072;42.668;23.396;2022-12-15T08:31:42;15.80;;;12.43;;
8058;SDS011;4072;42.668;23.396;2022-12-15T08:34:10;18.60;;;13.97;;
8058;SDS011;4072;42.668;23.396;2022-12-15T08:36:38;18.93;;;14.80;;
8058;SDS011;4072;42.668;23.396;2022-12-15T08:39:06;19.87;;;14.47;;
8058;SDS011;4072;42.668;23.396;2022-12-15T08:41:35;19.27;;;14.90;;
8058;SDS011;4072;42.668;23.396;2022-12-15T08:44:03;18.50;;;14.80;;
8058;SDS011;4072;42.668;23.396;2022-12-15T08:46:31;15.63;;;11.63;;
8058;SDS011;4072;42.668;23.396;2022-12-15T08:49:00;17.33;;;13.73;;
8058;SDS011;4072;42.668;23.396;2022-12-15T08:51:29;23.20;;;16.20;;
8058;SDS011;4072;42.668;23.396;2022-12-15T08:53:59;25.07;;;17.63;;
8058;SDS011;4072;42.668;23.396;2022-12-15T08:56:52;24.07;;;20.27;;
8058;SDS011;4072;42.668;23.396;2022-12-15T08:59:23;31.27;;;23.97;;
8058;SDS011;4072;42.668;23.396;2022-12-15T09:01:51;26.40;;;19.03;;
8058;SDS011;4072;42.668;23.396;2022-12-15T09:04:19;25.20;;;20.83;;
8058;SDS011;4072;42.668;23.396;2022-12-15T09:06:47;23.37;;;16.90;;
8058;SDS011;4072;42.668;23.396;2022-12-15T09:09:16;27.27;;;18.63;;
8058;SDS011;4072;42.668;23.396;2022-12-15T09:11:44;26.23;;;17.77;;
8058;SDS011;4072;42.668;23.396;2022-12-15T09:14:13;26.20;;;19.07;;
8058;SDS011;4072;42.668;23.396;2022-12-15T09:16:41;25.10;;;16.97;;
8058;SDS011;4072;42.668;23.396;2022-12-15T09:19:09;23.13;;;18.67;;
8058;SDS011;4072;42.668;23.396;2022-12-15T09:21:37;26.60;;;19.90;;
8058;SDS011;4072;42.668;23.396;2022-12-15T09:24:05;26.70;;;19.00;;
8058;SDS011;4072;42.668;23.396;2022-12-15T09:26:33;26.77;;;20.90;;
8058;SDS011;4072;42.668;23.396;2022-12-15T09:29:00;27.23;;;21.83;;
8058;SDS011;4072;42.668;23.396;2022-12-15T09:31:31;27.93;;;22.60;;
8058;SDS011;4072;42.668;23.396;2022-12-15T09:33:59;31.30;;;24.10;;
8058;SDS011;4072;42.668;23.396;2022-12-15T09:36:27;27.07;;;21.07;;
8058;SDS011;4072;42.668;23.396;2022-12-15T09:38:55;34.20;;;22.87;;
8058;SDS011;4072;42.668;23.396;2022-12-15T09:41:23;32.70;;;22.53;;
8058;SDS011;4072;42.668;23.396;2022-12-15T09:43:53;28.43;;;21.10;;
8058;SDS011;4072;42.668;23.396;2022-12-15T09:46:32;28.30;;;23.03;;
8058;SDS011;4072;42.668;23.396;2022-12-15T09:49:02;33.67;;;24.43;;
8058;SDS011;4072;42.668;23.396;2022-12-15T09:51:32;32.60;;;22.57;;
8058;SDS011;4072;42.668;23.396;2022-12-15T09:54:03;30.67;;;20.97;;
8058;SDS011;4072;42.668;23.396;2022-12-15T09:56:34;28.50;;;21.63;;
8058;SDS011;4072;42.668;23.396;2022-12-15T09:59:08;27.10;;;21.70;;
8058;SDS011;4072;42.668;23.396;2022-12-15T10:01:43;26.87;;;19.40;;
8058;SDS011;4072;42.668;23.396;2022-12-15T10:04:15;30.47;;;22.00;;
8058;SDS011;4072;42.668;23.396;2022-12-15T10:06:47;23.97;;;17.33;;
8058;SDS011;4072;42.668;23.396;2022-12-15T10:09:17;23.23;;;18.47;;
8058;SDS011;4072;42.668;23.396;2022-12-15T10:11:47;28.67;;;19.97;;
8058;SDS011;4072;42.668;23.396;2022-12-15T10:14:21;23.57;;;17.93;;
8058;SDS011;4072;42.668;23.396;2022-12-15T10:16:59;24.60;;;18.60;;
8058;SDS011;4072;42.668;23.396;2022-12-15T10:19:30;22.67;;;19.07;;
8058;SDS011;4072;42.668;23.396;2022-12-15T10:22:00;24.67;;;19.13;;
8058;SDS011;4072;42.668;23.396;2022-12-15T10:24:29;21.30;;;17.27;;
8058;SDS011;4072;42.668;23.396;2022-12-15T10:27:21;22.87;;;17.70;;
8058;SDS011;4072;42.668;23.396;2022-12-15T10:29:52;24.60;;;20.17;;
8058;SDS011;4072;42.668;23.396;2022-12-15T10:32:24;22.57;;;18.40;;
8058;SDS011;4072;42.668;23.396;2022-12-15T10:34:56;25.53;;;18.60;;
8058;SDS011;4072;42.668;23.396;2022-12-15T10:37:24;23.93;;;18.23;;
8058;SDS011;4072;42.668;23.396;2022-12-15T10:39:52;27.03;;;19.93;;
8058;SDS011;4072;42.668;23.396;2022-12-15T10:42:20;27.77;;;18.97;;
8058;SDS011;4072;42.668;23.396;2022-12-15T10:44:48;23.13;;;19.00;;
8058;SDS011;4072;42.668;23.396;2022-12-15T10:47:20;23.87;;;16.80;;
8058;SDS011;4072;42.668;23.396;2022-12-15T10:49:50;24.17;;;16.77;;
8058;SDS011;4072;42.668;23.396;2022-12-15T10:52:21;24.20;;;18.13;;
8058;SDS011;4072;42.668;23.396;2022-12-15T10:54:50;27.13;;;21.87;;
8058;SDS011;4072;42.668;23.396;2022-12-15T10:57:20;22.87;;;17.97;;
8058;SDS011;4072;42.668;23.396;2022-12-15T10:59:48;23.80;;;19.53;;
8058;SDS011;4072;42.668;23.396;2022-12-15T11:02:24;27.43;;;20.60;;
8058;SDS011;4072;42.668;23.396;2022-12-15T11:04:57;26.17;;;20.17;;
8058;SDS011;4072;42.668;23.396;2022-12-15T11:07:25;26.57;;;20.13;;
8058;SDS011;4072;42.668;23.396;2022-12-15T11:09:56;25.57;;;19.07;;
8058;SDS011;4072;42.668;23.396;2022-12-15T11:12:26;21.17;;;16.70;;
8058;SDS011;4072;42.668;23.396;2022-12-15T11:18:35;21.47;;;18.00;;
8058;SDS011;4072;42.668;23.396;2022-12-15T11:21:09;23.87;;;18.33;;
8058;SDS011;4072;42.668;23.396;2022-12-15T11:23:41;25.83;;;18.00;;
8058;SDS011;4072;42.668;23.396;2022-12-15T11:26:20;21.40;;;17.00;;
8058;SDS011;4072;42.668;23.396;2022-12-15T11:28:49;23.23;;;19.43;;
8058;SDS011;4072;42.668;23.396;2022-12-15T11:31:19;23.90;;;20.23;;
8058;SDS011;4072;42.668;23.396;2022-12-15T11:33:49;27.83;;;18.70;;
8058;SDS011;4072;42.668;23.396;2022-12-15T11:36:22;24.50;;;17.17;;
8058;SDS011;4072;42.668;23.396;2022-12-15T11:38:57;20.70;;;16.33;;
8058;SDS011;4072;42.668;23.396;2022-12-15T11:41:30;23.40;;;18.17;;
8058;SDS011;4072;42.668;23.396;2022-12-15T11:44:04;24.63;;;19.83;;
8058;SDS011;4072;42.668;23.396;2022-12-15T11:46:35;28.47;;;21.47;;
8058;SDS011;4072;42.668;23.396;2022-12-15T11:49:21;26.43;;;18.43;;
8058;SDS011;4072;42.668;23.396;2022-12-15T11:51:57;22.40;;;16.20;;
8058;SDS011;4072;42.668;23.396;2022-12-15T11:54:26;24.93;;;19.03;;
8058;SDS011;4072;42.668;23.396;2022-12-15T11:56:55;25.03;;;18.33;;
8058;SDS011;4072;42.668;23.396;2022-12-15T12:05:00;25.97;;;20.17;;
8058;SDS011;4072;42.668;23.396;2022-12-15T12:07:36;25.47;;;20.37;;
8058;SDS011;4072;42.668;23.396;2022-12-15T12:10:11;26.23;;;20.13;;
8058;SDS011;4072;42.668;23.396;2022-12-15T12:12:42;26.03;;;21.83;;
8058;SDS011;4072;42.668;23.396;2022-12-15T12:15:19;25.97;;;20.73;;
8058;SDS011;4072;42.668;23.396;2022-12-15T12:17:51;23.73;;;16.93;;
8058;SDS011;4072;42.668;23.396;2022-12-15T12:20:20;25.17;;;19.57;;
8058;SDS011;4072;42.668;23.396;2022-12-15T12:22:52;35.90;;;20.37;;
8058;SDS011;4072;42.668;23.396;2022-12-15T12:25:23;23.53;;;19.53;;
8058;SDS011;4072;42.668;23.396;2022-12-15T12:27:53;28.97;;;20.50;;
8058;SDS011;4072;42.668;23.396;2022-12-15T12:30:22;29.97;;;23.43;;
8058;SDS011;4072;42.668;23.396;2022-12-15T12:32:51;28.27;;;22.63;;
8058;SDS011;4072;42.668;23.396;2022-12-15T12:35:22;25.97;;;18.67;;
8058;SDS011;4072;42.668;23.396;2022-12-15T12:38:00;28.17;;;20.23;;
8058;SDS011;4072;42.668;23.396;2022-12-15T12:40:34;29.90;;;22.83;;
8058;SDS011;4072;42.668;23.396;2022-12-15T12:43:08;26.97;;;20.80;;
8058;SDS011;4072;42.668;23.396;2022-12-15T12:45:40;27.03;;;21.53;;
8058;SDS011;4072;42.668;23.396;2022-12-15T12:48:17;29.33;;;22.73;;
8058;SDS011;4072;42.668;23.396;2022-12-15T12:50:47;26.63;;;21.63;;
8058;SDS011;4072;42.668;23.396;2022-12-15T12:53:24;27.73;;;20.50;;
8058;SDS011;4072;42.668;23.396;2022-12-15T12:55:54;30.33;;;20.77;;
8058;SDS011;4072;42.668;23.396;2022-12-15T12:58:32;31.67;;;22.87;;
8058;SDS011;4072;42.668;23.396;2022-12-15T13:01:05;29.50;;;24.10;;
8058;SDS011;4072;42.668;23.396;2022-12-15T13:03:36;31.67;;;24.57;;
8058;SDS011;4072;42.668;23.396;2022-12-15T13:06:18;25.60;;;18.97;;
8058;SDS011;4072;42.668;23.396;2022-12-15T13:08:49;29.17;;;22.13;;
8058;SDS011;4072;42.668;23.396;2022-12-15T13:14:11;32.67;;;24.20;;
8058;SDS011;4072;42.668;23.396;2022-12-15T13:17:01;28.30;;;22.17;;
8058;SDS011;4072;42.668;23.396;2022-12-15T13:20:14;27.27;;;22.87;;
8058;SDS011;4072;42.668;23.396;2022-12-15T13:22:42;33.80;;;24.70;;
8058;SDS011;4072;42.668;23.396;2022-12-15T13:36:55;22.57;;;16.47;;
8058;SDS011;4072;42.668;23.396;2022-12-15T13:39:34;24.53;;;17.60;;
8058;SDS011;4072;42.668;23.396;2022-12-15T13:48:04;22.63;;;19.03;;
8058;SDS011;4072;42.668;23.396;2022-12-15T13:50:37;22.93;;;18.93;;
8058;SDS011;4072;42.668;23.396;2022-12-15T13:53:09;22.10;;;17.40;;
8058;SDS011;4072;42.668;23.396;2022-12-15T13:55:50;21.70;;;17.73;;
8058;SDS011;4072;42.668;23.396;2022-12-15T13:58:18;19.47;;;17.10;;
8058;SDS011;4072;42.668;23.396;2022-12-15T14:00:48;19.97;;;15.57;;
8058;SDS011;4072;42.668;23.396;2022-12-15T14:03:17;18.70;;;15.83;;
8058;SDS011;4072;42.668;23.396;2022-12-15T14:05:49;21.77;;;17.80;;
8058;SDS011;4072;42.668;23.396;2022-12-15T14:08:19;30.27;;;20.93;;
8058;SDS011;4072;42.668;23.396;2022-12-15T14:10:48;26.63;;;19.13;;
8058;SDS011;4072;42.668;23.396;2022-12-15T14:13:18;25.80;;;20.33;;
8058;SDS011;4072;42.668;23.396;2022-12-15T14:15:49;24.03;;;18.77;;
8058;SDS011;4072;42.668;23.396;2022-12-15T14:18:21;31.73;;;22.27;;
8058;SDS011;4072;42.668;23.396;2022-12-15T14:20:50;25.60;;;18.97;;
8058;SDS011;4072;42.668;23.396;2022-12-15T14:23:19;27.80;;;20.47;;
8058;SDS011;4072;42.668;23.396;2022-12-15T14:25:54;27.20;;;20.03;;
8058;SDS011;4072;42.668;23.396;2022-12-15T14:28:23;25.53;;;20.30;;
8058;SDS011;4072;42.668;23.396;2022-12-15T14:30:51;27.53;;;20.80;;
8058;SDS011;4072;42.668;23.396;2022-12-15T14:33:19;27.07;;;20.27;;
8058;SDS011;4072;42.668;23.396;2022-12-15T14:35:54;31.07;;;22.57;;
8058;SDS011;4072;42.668;23.396;2022-12-15T14:38:25;29.47;;;21.90;;
8058;SDS011;4072;42.668;23.396;2022-12-15T14:40:54;26.40;;;21.10;;
8058;SDS011;4072;42.668;23.396;2022-12-15T14:43:23;27.40;;;21.40;;
8058;SDS011;4072;42.668;23.396;2022-12-15T14:45:53;30.57;;;21.53;;
8058;SDS011;4072;42.668;23.396;2022-12-15T14:48:25;26.47;;;20.77;;
8058;SDS011;4072;42.668;23.396;2022-12-15T14:51:10;30.73;;;22.93;;
8058;SDS011;4072;42.668;23.396;2022-12-15T14:53:41;29.00;;;21.47;;
8058;SDS011;4072;42.668;23.396;2022-12-15T14:56:14;28.80;;;21.00;;
8058;SDS011;4072;42.668;23.396;2022-12-15T14:58:56;30.83;;;23.77;;
8058;SDS011;4072;42.668;23.396;2022-12-15T15:01:26;33.43;;;23.90;;
8058;SDS011;4072;42.668;23.396;2022-12-15T15:03:55;28.07;;;22.23;;
8058;SDS011;4072;42.668;23.396;2022-12-15T15:06:26;33.57;;;25.50;;
8058;SDS011;4072;42.668;23.396;2022-12-15T15:09:01;43.07;;;32.43;;
8058;SDS011;4072;42.668;23.396;2022-12-15T15:11:30;32.10;;;24.87;;
8058;SDS011;4072;42.668;23.396;2022-12-15T15:13:59;35.53;;;24.70;;
8058;SDS011;4072;42.668;23.396;2022-12-15T15:16:29;33.50;;;24.97;;
8058;SDS011;4072;42.668;23.396;2022-12-15T15:18:58;29.10;;;21.67;;
8058;SDS011;4072;42.668;23.396;2022-12-15T15:21:28;30.80;;;24.00;;
8058;SDS011;4072;42.668;23.396;2022-12-15T15:23:58;31.83;;;24.20;;
8058;SDS011;4072;42.668;23.396;2022-12-15T15:26:26;34.47;;;24.63;;
8058;SDS011;4072;42.668;23.396;2022-12-15T15:28:54;36.03;;;26.20;;
8058;SDS011;4072;42.668;23.396;2022-12-15T15:31:25;32.00;;;25.03;;
8058;SDS011;4072;42.668;23.396;2022-12-15T15:33:54;52.87;;;40.67;;
8058;SDS011;4072;42.668;23.396;2022-12-15T15:36:23;46.53;;;36.60;;
8058;SDS011;4072;42.668;23.396;2022-12-15T15:38:52;48.90;;;37.63;;
8058;SDS011;4072;42.668;23.396;2022-12-15T15:41:24;55.93;;;42.60;;